sensor_id;sensor_type;location;lat;lon;timestamp;temperature;humidity
19803;DHT22;66074;50.764;6.090;2023-03-01T00:01:25;1.80;81.40
19803;DHT22;66074;50.764;6.090;2023-03-01T00:03:51;1.70;81.70
19803;DHT22;66074;50.764;6.090;2023-03-01T00:06:18;1.70;81.60
19803;DHT22;66074;50.764;6.090;2023-03-01T00:08:44;1.70;81.60
19803;DHT22;66074;50.764;6.090;2023-03-01T00:11:11;1.80;81.60
19803;DHT22;66074;50.764;6.090;2023-03-01T00:13:37;1.80;81.70
19803;DHT22;66074;50.764;6.090;2023-03-01T00:16:05;1.80;81.90
19803;DHT22;66074;50.764;6.090;2023-03-01T00:18:31;1.80;81.90
19803;DHT22;66074;50.764;6.090;2023-03-01T00:20:57;1.90;82.00
19803;DHT22;66074;50.764;6.090;2023-03-01T00:23:23;1.90;82.00
19803;DHT22;66074;50.764;6.090;2023-03-01T00:25:49;2.00;82.20
19803;DHT22;66074;50.764;6.090;2023-03-01T00:28:15;1.90;82.20
19803;DHT22;66074;50.764;6.090;2023-03-01T00:30:41;1.90;82.20
19803;DHT22;66074;50.764;6.090;2023-03-01T00:33:07;1.90;82.20
19803;DHT22;66074;50.764;6.090;2023-03-01T00:35:33;1.80;82.10
19803;DHT22;66074;50.764;6.090;2023-03-01T00:37:59;1.80;82.20
19803;DHT22;66074;50.764;6.090;2023-03-01T00:40:26;1.70;82.30
19803;DHT22;66074;50.764;6.090;2023-03-01T00:42:52;1.70;82.40
19803;DHT22;66074;50.764;6.090;2023-03-01T00:45:18;1.70;82.50
19803;DHT22;66074;50.764;6.090;2023-03-01T00:47:43;1.70;82.60
19803;DHT22;66074;50.764;6.090;2023-03-01T00:50:10;1.80;82.60
19803;DHT22;66074;50.764;6.090;2023-03-01T00:52:36;1.70;82.70
19803;DHT22;66074;50.764;6.090;2023-03-01T00:55:02;1.70;82.50
19803;DHT22;66074;50.764;6.090;2023-03-01T00:57:27;1.60;82.30
19803;DHT22;66074;50.764;6.090;2023-03-01T00:59:53;1.70;82.50
19803;DHT22;66074;50.764;6.090;2023-03-01T01:02:19;1.60;82.60
19803;DHT22;66074;50.764;6.090;2023-03-01T01:04:45;1.60;82.70
19803;DHT22;66074;50.764;6.090;2023-03-01T01:07:11;1.50;82.60
19803;DHT22;66074;50.764;6.090;2023-03-01T01:09:36;1.50;82.60
19803;DHT22;66074;50.764;6.090;2023-03-01T01:12:03;1.50;82.80
19803;DHT22;66074;50.764;6.090;2023-03-01T01:14:29;1.50;82.70
19803;DHT22;66074;50.764;6.090;2023-03-01T01:16:54;1.50;83.00
19803;DHT22;66074;50.764;6.090;2023-03-01T01:19:20;1.50;83.00
19803;DHT22;66074;50.764;6.090;2023-03-01T01:21:46;1.60;83.00
19803;DHT22;66074;50.764;6.090;2023-03-01T01:24:13;1.60;83.00
19803;DHT22;66074;50.764;6.090;2023-03-01T01:26:40;1.60;83.00
19803;DHT22;66074;50.764;6.090;2023-03-01T01:29:06;1.60;83.20
19803;DHT22;66074;50.764;6.090;2023-03-01T01:31:33;1.50;83.00
19803;DHT22;66074;50.764;6.090;2023-03-01T01:34:01;1.50;83.10
19803;DHT22;66074;50.764;6.090;2023-03-01T01:36:27;1.50;83.10
19803;DHT22;66074;50.764;6.090;2023-03-01T01:38:53;1.50;83.10
19803;DHT22;66074;50.764;6.090;2023-03-01T01:41:19;1.50;83.20
19803;DHT22;66074;50.764;6.090;2023-03-01T01:43:48;1.50;83.30
19803;DHT22;66074;50.764;6.090;2023-03-01T01:46:31;1.50;83.30
19803;DHT22;66074;50.764;6.090;2023-03-01T01:49:04;1.50;84.10
19803;DHT22;66074;50.764;6.090;2023-03-01T01:51:38;1.50;83.60
19803;DHT22;66074;50.764;6.090;2023-03-01T01:54:16;1.40;83.80
19803;DHT22;66074;50.764;6.090;2023-03-01T01:56:48;1.40;83.90
19803;DHT22;66074;50.764;6.090;2023-03-01T01:59:15;1.40;83.50
19803;DHT22;66074;50.764;6.090;2023-03-01T02:01:40;1.40;83.50
19803;DHT22;66074;50.764;6.090;2023-03-01T02:04:06;1.30;83.40
19803;DHT22;66074;50.764;6.090;2023-03-01T02:06:38;1.30;83.50
19803;DHT22;66074;50.764;6.090;2023-03-01T02:09:09;1.30;83.40
19803;DHT22;66074;50.764;6.090;2023-03-01T02:11:37;1.30;83.70
19803;DHT22;66074;50.764;6.090;2023-03-01T02:14:03;1.30;83.60
19803;DHT22;66074;50.764;6.090;2023-03-01T02:16:29;1.30;83.70
19803;DHT22;66074;50.764;6.090;2023-03-01T02:18:56;1.20;83.50
19803;DHT22;66074;50.764;6.090;2023-03-01T02:24:15;1.20;84.20
19803;DHT22;66074;50.764;6.090;2023-03-01T02:26:48;1.20;84.00
19803;DHT22;66074;50.764;6.090;2023-03-01T02:29:15;1.20;83.80
19803;DHT22;66074;50.764;6.090;2023-03-01T02:31:40;1.10;83.60
19803;DHT22;66074;50.764;6.090;2023-03-01T02:34:18;1.10;83.70
19803;DHT22;66074;50.764;6.090;2023-03-01T02:36:47;1.10;83.80
19803;DHT22;66074;50.764;6.090;2023-03-01T02:39:44;1.00;83.70
19803;DHT22;66074;50.764;6.090;2023-03-01T02:42:15;1.10;84.10
19803;DHT22;66074;50.764;6.090;2023-03-01T02:44:42;1.00;84.00
19803;DHT22;66074;50.764;6.090;2023-03-01T02:47:07;1.00;83.70
19803;DHT22;66074;50.764;6.090;2023-03-01T02:49:35;1.00;83.60
19803;DHT22;66074;50.764;6.090;2023-03-01T02:57:12;1.00;84.20
19803;DHT22;66074;50.764;6.090;2023-03-01T02:59:38;0.90;84.10
19803;DHT22;66074;50.764;6.090;2023-03-01T03:02:22;0.90;84.10
19803;DHT22;66074;50.764;6.090;2023-03-01T03:05:24;0.90;84.10
19803;DHT22;66074;50.764;6.090;2023-03-01T03:07:49;0.90;84.10
19803;DHT22;66074;50.764;6.090;2023-03-01T03:10:24;0.80;84.00
19803;DHT22;66074;50.764;6.090;2023-03-01T03:12:55;0.80;84.50
19803;DHT22;66074;50.764;6.090;2023-03-01T03:15:21;0.80;84.40
19803;DHT22;66074;50.764;6.090;2023-03-01T03:17:48;0.80;84.30
19803;DHT22;66074;50.764;6.090;2023-03-01T03:20:17;0.80;84.30
19803;DHT22;66074;50.764;6.090;2023-03-01T03:22:51;0.80;84.50
19803;DHT22;66074;50.764;6.090;2023-03-01T03:25:17;0.80;84.30
19803;DHT22;66074;50.764;6.090;2023-03-01T03:27:46;0.80;84.40
19803;DHT22;66074;50.764;6.090;2023-03-01T03:30:17;0.80;84.40
19803;DHT22;66074;50.764;6.090;2023-03-01T03:32:46;0.80;84.50
19803;DHT22;66074;50.764;6.090;2023-03-01T03:35:31;0.80;84.60
19803;DHT22;66074;50.764;6.090;2023-03-01T03:38:01;0.80;84.90
19803;DHT22;66074;50.764;6.090;2023-03-01T03:40:29;0.70;84.60
19803;DHT22;66074;50.764;6.090;2023-03-01T03:42:55;0.80;84.60
19803;DHT22;66074;50.764;6.090;2023-03-01T03:45:21;0.70;84.30
19803;DHT22;66074;50.764;6.090;2023-03-01T03:47:46;0.70;84.20
19803;DHT22;66074;50.764;6.090;2023-03-01T03:50:14;0.60;84.30
19803;DHT22;66074;50.764;6.090;2023-03-01T03:52:40;0.70;84.50
19803;DHT22;66074;50.764;6.090;2023-03-01T03:55:07;0.60;84.60
19803;DHT22;66074;50.764;6.090;2023-03-01T03:57:41;0.60;84.60
19803;DHT22;66074;50.764;6.090;2023-03-01T04:00:10;0.60;84.80
19803;DHT22;66074;50.764;6.090;2023-03-01T04:02:42;0.60;84.70
19803;DHT22;66074;50.764;6.090;2023-03-01T04:05:09;0.60;84.80
19803;DHT22;66074;50.764;6.090;2023-03-01T04:07:36;0.60;84.70
19803;DHT22;66074;50.764;6.090;2023-03-01T04:10:06;0.50;84.50
19803;DHT22;66074;50.764;6.090;2023-03-01T04:12:33;0.50;84.70
19803;DHT22;66074;50.764;6.090;2023-03-01T04:15:00;0.40;84.70
19803;DHT22;66074;50.764;6.090;2023-03-01T04:17:25;0.50;84.90
19803;DHT22;66074;50.764;6.090;2023-03-01T04:19:51;0.50;84.90
19803;DHT22;66074;50.764;6.090;2023-03-01T04:22:17;0.50;84.90
19803;DHT22;66074;50.764;6.090;2023-03-01T04:24:44;0.50;84.80
19803;DHT22;66074;50.764;6.090;2023-03-01T04:27:10;0.50;84.90
19803;DHT22;66074;50.764;6.090;2023-03-01T04:29:36;0.60;85.00
19803;DHT22;66074;50.764;6.090;2023-03-01T04:32:02;0.60;84.80
19803;DHT22;66074;50.764;6.090;2023-03-01T04:34:29;0.50;84.80
19803;DHT22;66074;50.764;6.090;2023-03-01T04:36:55;0.60;84.90
19803;DHT22;66074;50.764;6.090;2023-03-01T04:39:21;0.50;84.70
19803;DHT22;66074;50.764;6.090;2023-03-01T04:41:47;0.50;84.80
19803;DHT22;66074;50.764;6.090;2023-03-01T04:44:13;0.50;84.80
19803;DHT22;66074;50.764;6.090;2023-03-01T04:46:38;0.50;84.90
19803;DHT22;66074;50.764;6.090;2023-03-01T04:49:04;0.40;84.90
19803;DHT22;66074;50.764;6.090;2023-03-01T04:51:30;0.40;85.00
19803;DHT22;66074;50.764;6.090;2023-03-01T04:53:58;0.40;85.00
19803;DHT22;66074;50.764;6.090;2023-03-01T04:56:23;0.40;84.90
19803;DHT22;66074;50.764;6.090;2023-03-01T04:58:49;0.40;85.10
19803;DHT22;66074;50.764;6.090;2023-03-01T05:01:17;0.40;85.20
19803;DHT22;66074;50.764;6.090;2023-03-01T05:03:48;0.30;85.20
19803;DHT22;66074;50.764;6.090;2023-03-01T05:06:15;0.30;85.20
19803;DHT22;66074;50.764;6.090;2023-03-01T05:08:42;0.30;85.10
19803;DHT22;66074;50.764;6.090;2023-03-01T05:11:08;0.30;85.40
19803;DHT22;66074;50.764;6.090;2023-03-01T05:13:36;0.30;85.40
19803;DHT22;66074;50.764;6.090;2023-03-01T05:16:04;0.30;85.40
19803;DHT22;66074;50.764;6.090;2023-03-01T05:18:32;0.30;85.60
19803;DHT22;66074;50.764;6.090;2023-03-01T05:21:09;0.30;85.50
19803;DHT22;66074;50.764;6.090;2023-03-01T05:23:35;0.30;85.80
19803;DHT22;66074;50.764;6.090;2023-03-01T05:26:02;0.30;85.40
19803;DHT22;66074;50.764;6.090;2023-03-01T05:28:29;0.20;85.30
19803;DHT22;66074;50.764;6.090;2023-03-01T05:30:56;0.20;85.20
19803;DHT22;66074;50.764;6.090;2023-03-01T05:33:23;0.20;85.40
19803;DHT22;66074;50.764;6.090;2023-03-01T05:35:50;0.20;85.30
19803;DHT22;66074;50.764;6.090;2023-03-01T05:38:17;0.20;85.20
19803;DHT22;66074;50.764;6.090;2023-03-01T05:40:44;0.10;85.30
19803;DHT22;66074;50.764;6.090;2023-03-01T05:43:11;0.10;85.30
19803;DHT22;66074;50.764;6.090;2023-03-01T05:45:38;0.10;85.40
19803;DHT22;66074;50.764;6.090;2023-03-01T05:48:04;0.10;85.50
19803;DHT22;66074;50.764;6.090;2023-03-01T05:50:37;0.20;85.60
19803;DHT22;66074;50.764;6.090;2023-03-01T05:53:05;0.20;85.60
19803;DHT22;66074;50.764;6.090;2023-03-01T05:55:32;0.20;85.50
19803;DHT22;66074;50.764;6.090;2023-03-01T05:57:59;0.20;85.50
19803;DHT22;66074;50.764;6.090;2023-03-01T06:00:25;0.20;85.50
19803;DHT22;66074;50.764;6.090;2023-03-01T06:02:53;0.20;85.40
19803;DHT22;66074;50.764;6.090;2023-03-01T06:05:19;0.20;85.50
19803;DHT22;66074;50.764;6.090;2023-03-01T06:07:45;0.20;85.40
19803;DHT22;66074;50.764;6.090;2023-03-01T06:10:12;0.20;85.40
19803;DHT22;66074;50.764;6.090;2023-03-01T06:12:39;0.20;85.50
19803;DHT22;66074;50.764;6.090;2023-03-01T06:15:06;0.10;85.50
19803;DHT22;66074;50.764;6.090;2023-03-01T06:17:34;0.10;85.70
19803;DHT22;66074;50.764;6.090;2023-03-01T06:20:04;0.10;85.70
19803;DHT22;66074;50.764;6.090;2023-03-01T06:22:30;0.10;86.30
19803;DHT22;66074;50.764;6.090;2023-03-01T06:24:55;0.10;85.80
19803;DHT22;66074;50.764;6.090;2023-03-01T06:27:21;0.10;85.70
19803;DHT22;66074;50.764;6.090;2023-03-01T06:29:47;0.20;84.90
19803;DHT22;66074;50.764;6.090;2023-03-01T06:32:13;0.20;86.00
19803;DHT22;66074;50.764;6.090;2023-03-01T06:34:38;0.20;86.00
19803;DHT22;66074;50.764;6.090;2023-03-01T06:37:05;0.20;86.10
19803;DHT22;66074;50.764;6.090;2023-03-01T06:39:32;0.20;85.90
19803;DHT22;66074;50.764;6.090;2023-03-01T06:41:58;0.20;86.00
19803;DHT22;66074;50.764;6.090;2023-03-01T06:44:24;0.20;85.90
19803;DHT22;66074;50.764;6.090;2023-03-01T06:46:49;0.20;85.90
19803;DHT22;66074;50.764;6.090;2023-03-01T06:49:15;0.20;86.50
19803;DHT22;66074;50.764;6.090;2023-03-01T06:51:43;0.20;86.00
19803;DHT22;66074;50.764;6.090;2023-03-01T06:54:08;0.30;86.20
19803;DHT22;66074;50.764;6.090;2023-03-01T06:56:35;0.30;86.10
19803;DHT22;66074;50.764;6.090;2023-03-01T06:59:00;0.20;86.10
19803;DHT22;66074;50.764;6.090;2023-03-01T07:01:26;0.20;87.10
19803;DHT22;66074;50.764;6.090;2023-03-01T07:03:52;0.20;86.30
19803;DHT22;66074;50.764;6.090;2023-03-01T07:06:17;0.60;86.80
19803;DHT22;66074;50.764;6.090;2023-03-01T07:08:43;0.20;86.50
19803;DHT22;66074;50.764;6.090;2023-03-01T07:11:08;0.20;86.60
19803;DHT22;66074;50.764;6.090;2023-03-01T07:13:34;0.30;86.70
19803;DHT22;66074;50.764;6.090;2023-03-01T07:16:00;0.40;86.60
19803;DHT22;66074;50.764;6.090;2023-03-01T07:18:26;0.40;86.60
19803;DHT22;66074;50.764;6.090;2023-03-01T07:20:51;0.50;86.50
19803;DHT22;66074;50.764;6.090;2023-03-01T07:23:17;0.50;86.50
19803;DHT22;66074;50.764;6.090;2023-03-01T07:25:42;0.50;86.60
19803;DHT22;66074;50.764;6.090;2023-03-01T07:28:08;0.50;86.50
19803;DHT22;66074;50.764;6.090;2023-03-01T07:30:33;0.50;86.50
19803;DHT22;66074;50.764;6.090;2023-03-01T07:32:59;0.50;86.30
19803;DHT22;66074;50.764;6.090;2023-03-01T07:35:26;0.60;86.70
19803;DHT22;66074;50.764;6.090;2023-03-01T07:37:52;0.60;86.70
19803;DHT22;66074;50.764;6.090;2023-03-01T07:40:17;0.60;86.40
19803;DHT22;66074;50.764;6.090;2023-03-01T07:42:43;0.70;86.30
19803;DHT22;66074;50.764;6.090;2023-03-01T07:45:09;0.70;86.70
19803;DHT22;66074;50.764;6.090;2023-03-01T07:47:35;0.80;86.70
19803;DHT22;66074;50.764;6.090;2023-03-01T07:50:01;0.80;86.60
19803;DHT22;66074;50.764;6.090;2023-03-01T07:52:28;0.80;86.70
19803;DHT22;66074;50.764;6.090;2023-03-01T07:54:53;0.80;86.50
19803;DHT22;66074;50.764;6.090;2023-03-01T07:57:19;0.90;86.50
19803;DHT22;66074;50.764;6.090;2023-03-01T07:59:45;0.90;86.40
19803;DHT22;66074;50.764;6.090;2023-03-01T08:02:11;1.00;87.20
19803;DHT22;66074;50.764;6.090;2023-03-01T08:04:36;1.00;86.40
19803;DHT22;66074;50.764;6.090;2023-03-01T08:07:04;1.00;86.40
19803;DHT22;66074;50.764;6.090;2023-03-01T08:09:30;1.10;86.30
19803;DHT22;66074;50.764;6.090;2023-03-01T08:11:57;1.00;86.30
19803;DHT22;66074;50.764;6.090;2023-03-01T08:14:25;1.10;86.60
19803;DHT22;66074;50.764;6.090;2023-03-01T08:16:50;1.10;86.30
19803;DHT22;66074;50.764;6.090;2023-03-01T08:19:16;1.20;86.30
19803;DHT22;66074;50.764;6.090;2023-03-01T08:21:42;1.20;86.10
19803;DHT22;66074;50.764;6.090;2023-03-01T08:24:08;1.30;86.10
19803;DHT22;66074;50.764;6.090;2023-03-01T08:26:35;1.30;86.10
19803;DHT22;66074;50.764;6.090;2023-03-01T08:29:02;1.40;86.20
19803;DHT22;66074;50.764;6.090;2023-03-01T08:31:31;1.40;86.60
19803;DHT22;66074;50.764;6.090;2023-03-01T08:33:59;1.40;85.80
19803;DHT22;66074;50.764;6.090;2023-03-01T08:36:31;1.40;86.20
19803;DHT22;66074;50.764;6.090;2023-03-01T08:38:57;1.50;86.20
19803;DHT22;66074;50.764;6.090;2023-03-01T08:41:23;1.50;86.00
19803;DHT22;66074;50.764;6.090;2023-03-01T08:43:48;1.50;85.80
19803;DHT22;66074;50.764;6.090;2023-03-01T08:46:14;1.50;86.10
19803;DHT22;66074;50.764;6.090;2023-03-01T08:48:40;1.60;86.10
19803;DHT22;66074;50.764;6.090;2023-03-01T08:53:34;1.80;85.80
19803;DHT22;66074;50.764;6.090;2023-03-01T08:56:00;1.90;85.80
19803;DHT22;66074;50.764;6.090;2023-03-01T08:58:28;2.00;85.60
19803;DHT22;66074;50.764;6.090;2023-03-01T09:00:54;2.20;85.30
19803;DHT22;66074;50.764;6.090;2023-03-01T09:03:22;2.30;85.00
19803;DHT22;66074;50.764;6.090;2023-03-01T09:05:48;2.20;84.80
19803;DHT22;66074;50.764;6.090;2023-03-01T09:08:19;2.30;84.90
19803;DHT22;66074;50.764;6.090;2023-03-01T09:10:45;2.50;85.00
19803;DHT22;66074;50.764;6.090;2023-03-01T09:13:11;3.10;85.10
19803;DHT22;66074;50.764;6.090;2023-03-01T09:15:37;3.60;84.70
19803;DHT22;66074;50.764;6.090;2023-03-01T09:18:04;3.60;83.90
19803;DHT22;66074;50.764;6.090;2023-03-01T09:20:31;3.50;84.00
19803;DHT22;66074;50.764;6.090;2023-03-01T09:22:56;3.40;83.60
19803;DHT22;66074;50.764;6.090;2023-03-01T09:25:22;3.20;83.80
19803;DHT22;66074;50.764;6.090;2023-03-01T09:27:53;3.10;83.40
19803;DHT22;66074;50.764;6.090;2023-03-01T09:30:20;3.00;83.70
19803;DHT22;66074;50.764;6.090;2023-03-01T09:32:46;3.00;83.70
19803;DHT22;66074;50.764;6.090;2023-03-01T09:35:12;3.10;84.00
19803;DHT22;66074;50.764;6.090;2023-03-01T09:37:38;3.00;84.10
19803;DHT22;66074;50.764;6.090;2023-03-01T09:40:16;3.00;83.80
19803;DHT22;66074;50.764;6.090;2023-03-01T09:42:53;3.00;83.90
19803;DHT22;66074;50.764;6.090;2023-03-01T09:45:27;2.90;83.30
19803;DHT22;66074;50.764;6.090;2023-03-01T09:47:55;3.00;83.70
19803;DHT22;66074;50.764;6.090;2023-03-01T09:50:22;3.10;83.70
19803;DHT22;66074;50.764;6.090;2023-03-01T09:52:58;3.20;83.40
19803;DHT22;66074;50.764;6.090;2023-03-01T09:55:46;3.10;83.20
19803;DHT22;66074;50.764;6.090;2023-03-01T10:01:27;3.10;82.80
19803;DHT22;66074;50.764;6.090;2023-03-01T10:06:31;3.20;83.00
19803;DHT22;66074;50.764;6.090;2023-03-01T10:09:04;3.20;83.40
19803;DHT22;66074;50.764;6.090;2023-03-01T10:11:36;3.30;82.90
19803;DHT22;66074;50.764;6.090;2023-03-01T10:17:08;3.20;82.80
19803;DHT22;66074;50.764;6.090;2023-03-01T10:19:43;3.30;82.90
19803;DHT22;66074;50.764;6.090;2023-03-01T10:22:28;3.30;82.90
19803;DHT22;66074;50.764;6.090;2023-03-01T10:24:57;3.40;82.90
19803;DHT22;66074;50.764;6.090;2023-03-01T10:27:38;3.30;82.40
19803;DHT22;66074;50.764;6.090;2023-03-01T10:30:17;3.20;82.70
19803;DHT22;66074;50.764;6.090;2023-03-01T10:32:46;3.30;82.60
19803;DHT22;66074;50.764;6.090;2023-03-01T10:40:30;3.50;82.20
19803;DHT22;66074;50.764;6.090;2023-03-01T10:43:01;3.50;82.40
19803;DHT22;66074;50.764;6.090;2023-03-01T10:45:36;3.60;82.70
19803;DHT22;66074;50.764;6.090;2023-03-01T10:48:26;3.80;82.60
19803;DHT22;66074;50.764;6.090;2023-03-01T10:53:42;3.90;82.70
19803;DHT22;66074;50.764;6.090;2023-03-01T10:56:12;4.10;82.70
19803;DHT22;66074;50.764;6.090;2023-03-01T10:58:41;4.20;82.80
19803;DHT22;66074;50.764;6.090;2023-03-01T11:06:28;4.40;81.40
19803;DHT22;66074;50.764;6.090;2023-03-01T11:08:54;4.40;82.20
19803;DHT22;66074;50.764;6.090;2023-03-01T11:11:29;4.40;82.10
19803;DHT22;66074;50.764;6.090;2023-03-01T11:14:00;4.40;82.00
19803;DHT22;66074;50.764;6.090;2023-03-01T11:16:36;4.40;80.90
19803;DHT22;66074;50.764;6.090;2023-03-01T11:21:40;4.30;81.00
19803;DHT22;66074;50.764;6.090;2023-03-01T11:24:11;4.20;81.50
19803;DHT22;66074;50.764;6.090;2023-03-01T11:26:41;4.30;81.40
19803;DHT22;66074;50.764;6.090;2023-03-01T11:31:57;4.40;81.30
19803;DHT22;66074;50.764;6.090;2023-03-01T11:45:23;4.50;80.70
19803;DHT22;66074;50.764;6.090;2023-03-01T11:48:35;4.60;80.20
19803;DHT22;66074;50.764;6.090;2023-03-01T11:50:40;4.50;81.00
19803;DHT22;66074;50.764;6.090;2023-03-01T11:53:43;4.70;81.30
19803;DHT22;66074;50.764;6.090;2023-03-01T11:56:34;4.70;79.10
19803;DHT22;66074;50.764;6.090;2023-03-01T12:07:38;4.70;79.20
19803;DHT22;66074;50.764;6.090;2023-03-01T12:10:52;4.80;79.00
19803;DHT22;66074;50.764;6.090;2023-03-01T12:13:39;4.90;78.60
19803;DHT22;66074;50.764;6.090;2023-03-01T12:30:13;5.00;78.50
19803;DHT22;66074;50.764;6.090;2023-03-01T12:38:31;5.20;80.00
19803;DHT22;66074;50.764;6.090;2023-03-01T12:54:38;5.50;80.20
19803;DHT22;66074;50.764;6.090;2023-03-01T13:00:27;5.60;79.70
19803;DHT22;66074;50.764;6.090;2023-03-01T13:03:10;5.70;78.90
19803;DHT22;66074;50.764;6.090;2023-03-01T13:11:22;5.90;77.60
19803;DHT22;66074;50.764;6.090;2023-03-01T13:13:48;5.90;77.40
19803;DHT22;66074;50.764;6.090;2023-03-01T13:19:16;6.20;78.80
19803;DHT22;66074;50.764;6.090;2023-03-01T13:21:46;6.30;78.60
19803;DHT22;66074;50.764;6.090;2023-03-01T13:24:41;6.40;79.00
19803;DHT22;66074;50.764;6.090;2023-03-01T13:29:54;6.60;78.60
19803;DHT22;66074;50.764;6.090;2023-03-01T13:32:23;6.60;78.10
19803;DHT22;66074;50.764;6.090;2023-03-01T13:34:57;6.70;79.20
19803;DHT22;66074;50.764;6.090;2023-03-01T13:37:32;6.70;77.90
19803;DHT22;66074;50.764;6.090;2023-03-01T13:40:00;6.90;78.40
19803;DHT22;66074;50.764;6.090;2023-03-01T13:42:44;6.80;77.90
19803;DHT22;66074;50.764;6.090;2023-03-01T13:45:34;6.90;77.50
19803;DHT22;66074;50.764;6.090;2023-03-01T13:48:11;7.00;78.40
19803;DHT22;66074;50.764;6.090;2023-03-01T13:50:53;7.50;79.20
19803;DHT22;66074;50.764;6.090;2023-03-01T13:53:23;9.80;76.30
19803;DHT22;66074;50.764;6.090;2023-03-01T13:55:58;12.10;73.20
19803;DHT22;66074;50.764;6.090;2023-03-01T13:58:28;13.90;71.30
19803;DHT22;66074;50.764;6.090;2023-03-01T14:01:05;15.30;71.00
19803;DHT22;66074;50.764;6.090;2023-03-01T14:03:33;16.60;67.50
19803;DHT22;66074;50.764;6.090;2023-03-01T14:06:06;17.30;66.60
19803;DHT22;66074;50.764;6.090;2023-03-01T14:08:34;17.30;68.30
19803;DHT22;66074;50.764;6.090;2023-03-01T14:13:35;18.30;65.60
19803;DHT22;66074;50.764;6.090;2023-03-01T14:16:21;18.40;65.90
19803;DHT22;66074;50.764;6.090;2023-03-01T14:21:27;17.90;57.90
19803;DHT22;66074;50.764;6.090;2023-03-01T14:23:53;17.50;64.50
19803;DHT22;66074;50.764;6.090;2023-03-01T14:26:22;18.00;62.30
19803;DHT22;66074;50.764;6.090;2023-03-01T14:28:49;17.60;59.80
19803;DHT22;66074;50.764;6.090;2023-03-01T14:31:35;17.20;60.30
19803;DHT22;66074;50.764;6.090;2023-03-01T14:34:01;17.60;58.70
19803;DHT22;66074;50.764;6.090;2023-03-01T14:36:29;18.20;62.50
19803;DHT22;66074;50.764;6.090;2023-03-01T14:38:55;17.70;62.50
19803;DHT22;66074;50.764;6.090;2023-03-01T14:41:26;17.60;62.90
19803;DHT22;66074;50.764;6.090;2023-03-01T14:43:58;18.10;61.80
19803;DHT22;66074;50.764;6.090;2023-03-01T14:46:38;18.70;58.70
19803;DHT22;66074;50.764;6.090;2023-03-01T14:49:17;17.30;60.30
19803;DHT22;66074;50.764;6.090;2023-03-01T14:51:57;17.10;59.90
19803;DHT22;66074;50.764;6.090;2023-03-01T14:54:30;16.20;61.10
19803;DHT22;66074;50.764;6.090;2023-03-01T14:57:00;14.40;62.00
19803;DHT22;66074;50.764;6.090;2023-03-01T14:59:25;12.60;62.90
19803;DHT22;66074;50.764;6.090;2023-03-01T15:01:54;11.60;63.90
19803;DHT22;66074;50.764;6.090;2023-03-01T15:04:21;10.80;64.00
19803;DHT22;66074;50.764;6.090;2023-03-01T15:06:51;10.30;64.50
19803;DHT22;66074;50.764;6.090;2023-03-01T15:09:17;9.90;65.80
19803;DHT22;66074;50.764;6.090;2023-03-01T15:11:44;9.20;66.20
19803;DHT22;66074;50.764;6.090;2023-03-01T15:14:37;8.90;66.90
19803;DHT22;66074;50.764;6.090;2023-03-01T15:17:04;8.50;67.10
19803;DHT22;66074;50.764;6.090;2023-03-01T15:19:29;8.20;67.50
19803;DHT22;66074;50.764;6.090;2023-03-01T15:21:55;8.00;67.90
19803;DHT22;66074;50.764;6.090;2023-03-01T15:24:24;7.90;68.30
19803;DHT22;66074;50.764;6.090;2023-03-01T15:26:51;7.80;68.60
19803;DHT22;66074;50.764;6.090;2023-03-01T15:29:22;7.70;68.60
19803;DHT22;66074;50.764;6.090;2023-03-01T15:32:06;7.60;68.90
19803;DHT22;66074;50.764;6.090;2023-03-01T15:34:35;7.60;69.20
19803;DHT22;66074;50.764;6.090;2023-03-01T15:37:04;7.60;69.20
19803;DHT22;66074;50.764;6.090;2023-03-01T15:39:42;7.60;69.50
19803;DHT22;66074;50.764;6.090;2023-03-01T15:42:11;7.60;69.60
19803;DHT22;66074;50.764;6.090;2023-03-01T15:44:40;7.60;69.70
19803;DHT22;66074;50.764;6.090;2023-03-01T15:47:29;7.50;69.80
19803;DHT22;66074;50.764;6.090;2023-03-01T15:49:57;7.50;70.00
19803;DHT22;66074;50.764;6.090;2023-03-01T15:52:29;7.40;69.90
19803;DHT22;66074;50.764;6.090;2023-03-01T15:55:02;7.30;69.80
19803;DHT22;66074;50.764;6.090;2023-03-01T15:57:28;7.30;70.10
19803;DHT22;66074;50.764;6.090;2023-03-01T15:59:55;7.20;70.20
19803;DHT22;66074;50.764;6.090;2023-03-01T16:02:22;7.20;70.40
19803;DHT22;66074;50.764;6.090;2023-03-01T16:04:49;7.20;70.50
19803;DHT22;66074;50.764;6.090;2023-03-01T16:07:15;7.10;70.60
19803;DHT22;66074;50.764;6.090;2023-03-01T16:09:41;7.20;70.90
19803;DHT22;66074;50.764;6.090;2023-03-01T16:12:13;6.90;70.70
19803;DHT22;66074;50.764;6.090;2023-03-01T16:14:39;7.00;71.00
19803;DHT22;66074;50.764;6.090;2023-03-01T16:17:05;7.30;71.50
19803;DHT22;66074;50.764;6.090;2023-03-01T16:19:31;7.00;71.50
19803;DHT22;66074;50.764;6.090;2023-03-01T16:21:56;6.90;71.70
19803;DHT22;66074;50.764;6.090;2023-03-01T16:24:22;6.90;71.70
19803;DHT22;66074;50.764;6.090;2023-03-01T16:26:47;6.80;71.60
19803;DHT22;66074;50.764;6.090;2023-03-01T16:29:13;6.80;71.70
19803;DHT22;66074;50.764;6.090;2023-03-01T16:31:40;7.10;72.00
19803;DHT22;66074;50.764;6.090;2023-03-01T16:34:05;6.90;71.80
19803;DHT22;66074;50.764;6.090;2023-03-01T16:36:31;6.80;71.80
19803;DHT22;66074;50.764;6.090;2023-03-01T16:38:59;6.80;71.90
19803;DHT22;66074;50.764;6.090;2023-03-01T16:41:27;6.80;72.00
19803;DHT22;66074;50.764;6.090;2023-03-01T16:43:52;6.70;71.90
19803;DHT22;66074;50.764;6.090;2023-03-01T16:46:21;6.70;72.10
19803;DHT22;66074;50.764;6.090;2023-03-01T16:48:48;6.70;72.20
19803;DHT22;66074;50.764;6.090;2023-03-01T16:51:13;6.70;72.20
19803;DHT22;66074;50.764;6.090;2023-03-01T16:53:39;6.90;72.40
19803;DHT22;66074;50.764;6.090;2023-03-01T16:56:09;6.70;72.30
19803;DHT22;66074;50.764;6.090;2023-03-01T16:58:36;6.60;72.40
19803;DHT22;66074;50.764;6.090;2023-03-01T17:01:11;6.60;72.50
19803;DHT22;66074;50.764;6.090;2023-03-01T17:03:38;6.60;72.90
19803;DHT22;66074;50.764;6.090;2023-03-01T17:06:05;6.60;72.80
19803;DHT22;66074;50.764;6.090;2023-03-01T17:08:32;6.50;73.00
19803;DHT22;66074;50.764;6.090;2023-03-01T17:11:12;6.50;73.20
19803;DHT22;66074;50.764;6.090;2023-03-01T17:13:39;6.40;73.30
19803;DHT22;66074;50.764;6.090;2023-03-01T17:16:06;6.30;73.30
19803;DHT22;66074;50.764;6.090;2023-03-01T17:18:32;6.30;73.50
19803;DHT22;66074;50.764;6.090;2023-03-01T17:20:58;6.30;73.70
19803;DHT22;66074;50.764;6.090;2023-03-01T17:23:25;6.30;73.70
19803;DHT22;66074;50.764;6.090;2023-03-01T17:25:52;6.30;74.00
19803;DHT22;66074;50.764;6.090;2023-03-01T17:28:21;6.20;73.80
19803;DHT22;66074;50.764;6.090;2023-03-01T17:30:47;6.20;73.90
19803;DHT22;66074;50.764;6.090;2023-03-01T17:33:14;6.10;73.90
19803;DHT22;66074;50.764;6.090;2023-03-01T17:35:40;6.10;74.10
19803;DHT22;66074;50.764;6.090;2023-03-01T17:38:06;6.30;74.70
19803;DHT22;66074;50.764;6.090;2023-03-01T17:40:32;6.00;74.30
19803;DHT22;66074;50.764;6.090;2023-03-01T17:42:58;6.00;74.40
19803;DHT22;66074;50.764;6.090;2023-03-01T17:45:25;6.00;74.50
19803;DHT22;66074;50.764;6.090;2023-03-01T17:47:51;6.00;74.40